createdAt,value
2022-08-09T00:00:00.184Z,101320.28
2022-08-09T00:02:29.057Z,101314.91
2022-08-09T00:05:03.208Z,101319.53
2022-08-09T00:07:44.650Z,101324.19
2022-08-09T00:10:11.805Z,101322.50
2022-08-09T00:12:51.727Z,101316.22
2022-08-09T00:15:19.770Z,101326.03
2022-08-09T00:18:09.353Z,101314.53
2022-08-09T00:20:38.447Z,101317.34
2022-08-09T00:23:56.723Z,101314.75
2022-08-09T00:25:56.334Z,101311.34
2022-08-09T00:28:23.019Z,101308.75
2022-08-09T00:30:53.653Z,101310.72
2022-08-09T00:33:49.084Z,101308.03
2022-08-09T00:36:07.974Z,101309.97
2022-08-09T00:38:34.939Z,101319.13
2022-08-09T00:41:01.476Z,101313.88
2022-08-09T00:44:15.997Z,101321.81
2022-08-09T00:46:28.494Z,101317.44
2022-08-09T00:49:02.398Z,101319.47
2022-08-09T00:51:33.773Z,101315.06
2022-08-09T00:54:00.637Z,101317.88
2022-08-09T00:56:27.248Z,101324.09
2022-08-09T00:58:53.711Z,101330.59
2022-08-09T01:01:24.058Z,101328.00
2022-08-09T01:04:08.612Z,101321.78
2022-08-09T01:06:54.522Z,101326.28
2022-08-09T01:09:36.558Z,101321.03
2022-08-09T01:12:12.917Z,101324.81
2022-08-09T01:14:45.094Z,101327.50
2022-08-09T01:17:30.434Z,101321.50
2022-08-09T01:20:03.141Z,101325.06
2022-08-09T01:22:57.492Z,101326.03
2022-08-09T01:25:37.501Z,101313.69
2022-08-09T01:28:11.277Z,101322.59
2022-08-09T01:30:51.325Z,101324.53
2022-08-09T01:33:23.817Z,101318.44
2022-08-09T01:35:57.623Z,101319.50
2022-08-09T01:38:29.728Z,101312.31
2022-08-09T01:41:04.766Z,101305.34
2022-08-09T01:43:45.737Z,101313.50
2022-08-09T01:46:24.699Z,101303.97
2022-08-09T01:48:55.399Z,101302.16
2022-08-09T01:51:23.799Z,101302.16
2022-08-09T01:53:58.105Z,101300.44
2022-08-09T01:56:27.064Z,101302.28
2022-08-09T01:58:56.447Z,101300.78
2022-08-09T02:01:57.638Z,101298.22
2022-08-09T02:04:13.278Z,101296.38
2022-08-09T02:06:45.306Z,101306.41
2022-08-09T02:09:23.469Z,101303.94
2022-08-09T02:11:50.931Z,101295.88
2022-08-09T02:14:26.413Z,101299.53
2022-08-09T02:17:15.238Z,101306.63
2022-08-09T02:19:43.589Z,101303.94
2022-08-09T02:22:16.783Z,101303.19
2022-08-09T02:24:52.006Z,101292.66
2022-08-09T02:27:27.452Z,101285.81
2022-08-09T02:30:11.860Z,101291.19
2022-08-09T02:32:43.471Z,101296.69
2022-08-09T02:35:19.299Z,101303.91
2022-08-09T02:37:54.318Z,101299.47
2022-08-09T02:40:26.895Z,101290.69
2022-08-09T02:42:55.582Z,101292.41
2022-08-09T02:45:31.146Z,101292.53
2022-08-09T02:48:02.872Z,101288.97
2022-08-09T02:50:35.973Z,101289.31
2022-08-09T02:53:07.652Z,101287.59
2022-08-09T02:55:57.414Z,101289.44
2022-08-09T02:58:35.538Z,101281.63
2022-08-09T03:01:08.344Z,101285.16
2022-08-09T03:04:12.799Z,101293.31
2022-08-09T03:06:27.400Z,101286.34
2022-08-09T03:08:55.290Z,101295.50
2022-08-09T03:12:04.528Z,101288.19
2022-08-09T03:14:11.784Z,101291.09
2022-08-09T03:16:45.193Z,101289.38
2022-08-09T03:19:58.827Z,101309.91
2022-08-09T03:22:11.793Z,101294.72
2022-08-09T03:24:42.754Z,101290.47
2022-08-09T03:27:21.610Z,101294.00
2022-08-09T03:29:57.846Z,101284.34
2022-08-09T03:32:30.058Z,101284.34
2022-08-09T03:34:57.152Z,101288.06
2022-08-09T03:37:56.180Z,101281.00
2022-08-09T03:40:13.094Z,101288.31
2022-08-09T03:42:40.107Z,101291.09
2022-08-09T03:45:10.485Z,101289.28
2022-08-09T03:47:41.889Z,101292.19
2022-08-09T03:50:12.266Z,101291.34
2022-08-09T03:52:41.818Z,101294.16
2022-08-09T03:55:14.313Z,101292.44
2022-08-09T03:57:53.706Z,101295.97
2022-08-09T04:00:29.425Z,101295.13
2022-08-09T04:02:59.438Z,101295.34
2022-08-09T04:05:28.080Z,101295.34
2022-08-09T04:07:57.336Z,101296.28
2022-08-09T04:10:29.657Z,101301.78
2022-08-09T04:12:58.180Z,101300.09
2022-08-09T04:15:52.224Z,101298.34
2022-08-09T04:18:18.057Z,101296.50
2022-08-09T04:20:46.445Z,101293.97
2022-08-09T04:23:17.376Z,101290.50
2022-08-09T04:25:44.783Z,101289.56
2022-08-09T04:28:34.003Z,101293.19
2022-08-09T04:31:08.303Z,101290.75
2022-08-09T04:33:53.144Z,101301.59
2022-08-09T04:36:25.522Z,101292.81
2022-08-09T04:38:52.532Z,101293.75
2022-08-09T04:41:19.231Z,101290.22
2022-08-09T04:44:05.782Z,101296.44
2022-08-09T04:46:37.698Z,101297.44
2022-08-09T04:49:40.862Z,101301.94
2022-08-09T04:52:09.636Z,101300.13
2022-08-09T04:54:36.495Z,101304.63
2022-08-09T04:57:03.919Z,101303.78
2022-08-09T04:59:30.945Z,101301.19
2022-08-09T05:01:57.687Z,101304.97
2022-08-09T05:04:31.165Z,101304.22
2022-08-09T05:06:57.962Z,101313.25
2022-08-09T05:09:24.576Z,101313.97
2022-08-09T05:11:51.435Z,101314.94
2022-08-09T05:14:18.455Z,101318.59
2022-08-09T05:16:58.998Z,101314.94
2022-08-09T05:19:44.482Z,101315.91
2022-08-09T05:22:35.078Z,101324.91
2022-08-09T05:24:57.780Z,101313.47
2022-08-09T05:27:29.120Z,101325.25
2022-08-09T05:29:57.787Z,101326.97
2022-08-09T05:32:25.730Z,101328.91
2022-08-09T05:34:53.464Z,101339.66
2022-08-09T05:37:19.995Z,101330.75
2022-08-09T05:39:46.624Z,101334.28
2022-08-09T05:42:18.063Z,101339.53
2022-08-09T05:44:50.642Z,101349.41
2022-08-09T05:47:17.985Z,101338.69
2022-08-09T05:50:31.137Z,101348.44
2022-08-09T05:52:32.711Z,101357.34
2022-08-09T05:55:02.991Z,101349.28
2022-08-09T05:57:55.424Z,101353.72
2022-08-09T06:00:20.655Z,101356.41
2022-08-09T06:02:48.925Z,101362.72
2022-08-09T06:05:20.544Z,101361.75
2022-08-09T06:08:05.396Z,101356.41
2022-08-09T06:10:34.713Z,101358.09
2022-08-09T06:13:12.199Z,101358.09
2022-08-09T06:15:44.997Z,101359.81
2022-08-09T06:18:13.780Z,101362.41
2022-08-09T06:20:42.369Z,101366.78
2022-08-09T06:23:12.076Z,101375.81
2022-08-09T06:25:42.084Z,101372.16
2022-08-09T06:28:09.888Z,101374.75
2022-08-09T06:30:36.495Z,101373.78
2022-08-09T06:33:30.404Z,101368.41
2022-08-09T06:35:57.123Z,101372.72
2022-08-09T06:38:32.125Z,101375.28
2022-08-09T06:41:04.561Z,101372.59
2022-08-09T06:43:39.715Z,101370.75
2022-08-09T06:46:10.858Z,101369.78
2022-08-09T06:48:42.793Z,101365.28
2022-08-09T06:51:10.206Z,101367.00
2022-08-09T06:53:38.898Z,101369.56
2022-08-09T06:56:06.858Z,101371.16
2022-08-09T07:00:46.925Z,101375.47
2022-08-09T07:01:21.421Z,101375.34
2022-08-09T07:03:52.192Z,101374.38
2022-08-09T07:06:19.743Z,101373.44
2022-08-09T07:08:49.534Z,101376.84
2022-08-09T07:11:17.719Z,101375.00
2022-08-09T07:14:05.733Z,101372.22
2022-08-09T07:16:41.577Z,101373.09
2022-08-09T07:19:09.995Z,101381.03
2022-08-09T07:21:41.865Z,101376.53
2022-08-09T07:24:32.096Z,101378.09
2022-08-09T07:27:00.445Z,101374.34
2022-08-09T07:29:37.667Z,101380.69
2022-08-09T07:32:05.861Z,101385.00
2022-08-09T07:34:32.539Z,101378.66
2022-08-09T07:37:02.748Z,101383.03
2022-08-09T07:39:41.644Z,101384.03
2022-08-09T07:42:09.288Z,101382.06
2022-08-09T07:44:52.494Z,101380.16
2022-08-09T07:47:21.364Z,101387.25
2022-08-09T07:50:05.412Z,101383.63
2022-08-09T07:52:36.014Z,101384.34
2022-08-09T07:55:09.753Z,101377.03
2022-08-09T07:57:46.965Z,101378.75
2022-08-09T08:00:20.803Z,101385.09
2022-08-09T08:03:04.462Z,101389.38
2022-08-09T08:05:39.212Z,101392.94
2022-08-09T08:09:01.360Z,101396.34
2022-08-09T08:12:11.390Z,101394.53
2022-08-09T08:13:56.215Z,101396.25
2022-08-09T08:16:31.384Z,101393.44
2022-08-09T08:18:58.946Z,101405.91
2022-08-09T08:21:25.534Z,101405.81
2022-08-09T08:23:55.911Z,101393.22
2022-08-09T08:26:41.999Z,101390.41
2022-08-09T08:29:10.677Z,101397.53
2022-08-09T08:31:39.425Z,101399.22
2022-08-09T08:34:25.384Z,101397.41
2022-08-09T08:36:52.414Z,101392.78
2022-08-09T08:39:18.943Z,101402.53
2022-08-09T08:41:52.417Z,101404.25
2022-08-09T08:44:27.249Z,101403.31
2022-08-09T08:47:03.398Z,101401.34
2022-08-09T08:49:48.054Z,101405.75
2022-08-09T08:52:52.953Z,101402.09
2022-08-09T08:55:05.648Z,101405.66
2022-08-09T08:57:35.464Z,101393.81
2022-08-09T09:00:08.205Z,101390.16
2022-08-09T09:02:44.882Z,101397.22
2022-08-09T09:05:22.179Z,101389.94
2022-08-09T09:08:02.295Z,101385.50
2022-08-09T09:10:30.076Z,101391.53
2022-08-09T09:12:59.586Z,101387.88
2022-08-09T09:15:37.617Z,101381.50
2022-08-09T09:18:04.158Z,101381.41
2022-08-09T09:20:34.632Z,101386.66
2022-08-09T09:23:03.044Z,101371.28
2022-08-09T09:26:01.442Z,101385.59
2022-08-09T09:29:02.942Z,101379.22
2022-08-09T09:31:17.235Z,101378.25
2022-08-09T09:34:10.046Z,101381.69
2022-08-09T09:36:51.104Z,101370.09
2022-08-09T09:39:21.506Z,101379.63
2022-08-09T09:41:49.744Z,101377.78
2022-08-09T09:44:27.889Z,101372.41
2022-08-09T09:47:06.778Z,101377.56
2022-08-09T09:50:07.422Z,101375.84
2022-08-09T09:52:36.741Z,101364.97
2022-08-09T09:55:16.236Z,101364.84
2022-08-09T09:58:17.346Z,101369.28
2022-08-09T10:00:53.701Z,101365.47
2022-08-09T10:03:39.504Z,101361.72
2022-08-09T10:06:06.938Z,101366.13
2022-08-09T10:08:43.301Z,101364.16
2022-08-09T10:11:59.414Z,101360.50
2022-08-09T10:14:27.463Z,101354.88
2022-08-09T10:17:40.303Z,101356.63
2022-08-09T10:19:46.476Z,101359.31
2022-08-09T10:22:13.074Z,101361.88
2022-08-09T10:24:39.659Z,101361.88
2022-08-09T10:27:10.339Z,101368.84
2022-08-09T10:30:26.386Z,101342.69
2022-08-09T10:32:48.524Z,101334.63
2022-08-09T10:35:16.210Z,101341.75
2022-08-09T10:37:44.336Z,101328.19
2022-08-09T10:40:32.454Z,101346.03
2022-08-09T10:42:59.924Z,101337.97
2022-08-09T10:45:31.774Z,101337.84
2022-08-09T10:48:25.915Z,101334.19
2022-08-09T10:50:58.914Z,101335.88
2022-08-09T10:53:46.895Z,101338.56
2022-08-09T10:56:23.314Z,101324.28
2022-08-09T10:58:51.027Z,101323.19
2022-08-09T11:03:13.504Z,101319.50
2022-08-09T11:04:31.252Z,101328.34
2022-08-09T11:07:56.724Z,101321.13
2022-08-09T11:10:15.132Z,101320.88
2022-08-09T11:12:42.201Z,101325.28
2022-08-09T11:15:24.395Z,101318.06
2022-08-09T11:18:03.727Z,101317.22
2022-08-09T11:20:41.451Z,101326.13
2022-08-09T11:23:10.639Z,101324.19
2022-08-09T11:25:46.135Z,101314.28
2022-08-09T11:28:34.593Z,101323.19
2022-08-09T11:31:36.522Z,101322.22
2022-08-09T11:34:09.780Z,101322.22
2022-08-09T11:36:42.327Z,101313.31
2022-08-09T11:39:11.088Z,101315.66
2022-08-09T11:41:40.473Z,101318.34
2022-08-09T11:44:08.006Z,101314.75
2022-08-09T11:46:58.113Z,101310.28
2022-08-09T11:50:56.077Z,101321.75
2022-08-09T11:53:57.486Z,101310.88
2022-08-09T11:56:02.491Z,101300.97
2022-08-09T11:58:48.186Z,101299.13
2022-08-09T12:02:18.043Z,101307.06
2022-08-09T12:04:08.779Z,101297.16
2022-08-09T12:06:55.747Z,101288.13
2022-08-09T12:09:26.172Z,101290.81
2022-08-09T12:12:02.594Z,101287.16
2022-08-09T12:14:40.499Z,101294.97
2022-08-09T12:17:28.340Z,101287.75
2022-08-09T12:20:12.592Z,101282.38
2022-08-09T12:22:44.701Z,101275.16
2022-08-09T12:25:12.508Z,101285.06
2022-08-09T12:29:10.893Z,101276.00
2022-08-09T12:30:36.749Z,101276.88
2022-08-09T12:33:05.872Z,101279.44
2022-08-09T12:35:40.255Z,101278.47
2022-08-09T12:38:37.797Z,101269.31
2022-08-09T12:41:05.402Z,101275.53
2022-08-09T12:44:05.361Z,101272.84
2022-08-09T12:46:23.411Z,101271.00
2022-08-09T12:48:51.156Z,101270.03
2022-08-09T12:51:30.292Z,101278.97
2022-08-09T12:54:06.698Z,101263.69
2022-08-09T12:56:50.986Z,101270.91
2022-08-09T12:59:21.640Z,101271.63
2022-08-09T13:02:01.339Z,101269.78
2022-08-09T13:04:36.558Z,101254.38
2022-08-09T13:07:13.391Z,101256.06
2022-08-09T13:09:43.284Z,101256.06
2022-08-09T13:12:19.930Z,101247.03
2022-08-09T13:14:54.282Z,101247.03
2022-08-09T13:18:03.229Z,101245.19
2022-08-09T13:20:14.379Z,101247.66
2022-08-09T13:23:01.156Z,101238.44
2022-08-09T13:25:41.786Z,101245.66
2022-08-09T13:28:10.478Z,101246.53
2022-08-09T13:30:50.438Z,101240.19
2022-08-09T13:33:51.667Z,101240.91
2022-08-09T13:36:24.806Z,101240.78
2022-08-09T13:39:08.186Z,101239.06
2022-08-09T13:41:57.603Z,101236.38
2022-08-09T13:44:27.108Z,101237.22
2022-08-09T13:47:27.028Z,101235.28
2022-08-09T13:49:57.680Z,101230.72
2022-08-09T13:52:28.208Z,101236.97
2022-08-09T13:55:00.745Z,101227.78
2022-08-09T13:57:35.934Z,101231.34
2022-08-09T14:00:08.192Z,101225.09
2022-08-09T14:02:36.324Z,101229.50
2022-08-09T14:05:10.422Z,101226.81
2022-08-09T14:07:41.004Z,101221.31
2022-08-09T14:10:17.529Z,101228.53
2022-08-09T14:12:56.311Z,101219.47
2022-08-09T14:16:10.131Z,101223.88
2022-08-09T14:18:19.655Z,101212.25
2022-08-09T14:20:54.129Z,101219.22
2022-08-09T14:23:40.132Z,101218.22
2022-08-09T14:26:06.984Z,101218.97
2022-08-09T14:28:36.652Z,101201.97
2022-08-09T14:31:03.303Z,101216.28
2022-08-09T14:33:38.267Z,101215.28
2022-08-09T14:36:19.835Z,101201.84
2022-08-09T14:38:52.582Z,101192.75
2022-08-09T14:41:39.814Z,101205.31
2022-08-09T14:44:06.662Z,101188.16
2022-08-09T14:47:01.074Z,101199.91
2022-08-09T14:49:23.908Z,101193.53
2022-08-09T14:51:50.637Z,101185.47
2022-08-09T14:54:27.544Z,101189.84
2022-08-09T14:56:57.727Z,101190.84
2022-08-09T14:59:25.825Z,101179.09
2022-08-09T15:01:53.878Z,101182.53
2022-08-09T15:04:20.368Z,101180.69
2022-08-09T15:06:51.751Z,101182.38
2022-08-09T15:10:03.717Z,101174.31
2022-08-09T15:12:07.777Z,101184.06
2022-08-09T15:14:34.957Z,101178.59
2022-08-09T15:17:05.450Z,101171.34
2022-08-09T15:19:35.961Z,101175.75
2022-08-09T15:22:04.215Z,101175.63
2022-08-09T15:24:32.201Z,101172.81
2022-08-09T15:26:59.424Z,101173.66
2022-08-09T15:30:56.678Z,101173.53
2022-08-09T15:32:29.580Z,101172.69
2022-08-09T15:34:57.346Z,101170.84
2022-08-09T15:37:36.926Z,101163.63
2022-08-09T15:40:11.645Z,101163.38
2022-08-09T15:42:39.547Z,101172.91
2022-08-09T15:45:11.288Z,101175.44
2022-08-09T15:47:51.442Z,101173.63
2022-08-09T15:50:19.710Z,101172.50
2022-08-09T15:52:55.134Z,101166.84
2022-08-09T15:56:04.323Z,101163.47
2022-08-09T15:58:26.730Z,101169.69
2022-08-09T16:00:53.880Z,101160.63
2022-08-09T16:03:29.570Z,101161.47
2022-08-09T16:06:05.464Z,101163.16
2022-08-09T16:08:33.377Z,101160.38
2022-08-09T16:11:01.462Z,101154.25
2022-08-09T16:14:04.018Z,101159.13
2022-08-09T16:16:18.707Z,101157.28
2022-08-09T16:18:45.779Z,101149.94
2022-08-09T16:21:17.253Z,101149.78
2022-08-09T16:23:55.764Z,101147.69
2022-08-09T16:26:33.367Z,101138.50
2022-08-09T16:29:01.168Z,101147.41
2022-08-09T16:32:10.245Z,101139.34
2022-08-09T16:34:24.118Z,101150.00
2022-08-09T16:36:50.563Z,101145.56
2022-08-09T16:39:18.363Z,101146.44
2022-08-09T16:42:03.703Z,101140.78
2022-08-09T16:44:32.083Z,101151.44
2022-08-09T16:47:04.013Z,101147.91
2022-08-09T16:50:29.087Z,101145.06
2022-08-09T16:52:32.429Z,101147.75
2022-08-09T16:55:00.416Z,101149.44
2022-08-09T16:57:26.922Z,101153.13
2022-08-09T17:00:14.755Z,101145.22
2022-08-09T17:02:41.634Z,101149.59
2022-08-09T17:05:10.267Z,101154.13
2022-08-09T17:08:44.725Z,101155.84
2022-08-09T17:10:27.702Z,101149.44
2022-08-09T17:12:54.187Z,101156.56
2022-08-09T17:15:59.035Z,101151.03
2022-08-09T17:18:07.947Z,101153.59
2022-08-09T17:20:42.398Z,101150.03
2022-08-09T17:23:15.934Z,101152.63
2022-08-09T17:25:44.319Z,101144.53
2022-08-09T17:28:19.212Z,101148.94
2022-08-09T17:30:47.856Z,101149.78
2022-08-09T17:33:21.890Z,101157.88
2022-08-09T17:35:50.011Z,101145.25
2022-08-09T17:38:30.701Z,101152.38
2022-08-09T17:41:02.963Z,101156.75
2022-08-09T17:43:34.799Z,101158.34
2022-08-09T17:46:06.113Z,101150.84
2022-08-09T17:48:35.139Z,101147.41
2022-08-09T17:51:10.305Z,101150.00
2022-08-09T17:53:51.644Z,101145.56
2022-08-09T17:56:21.591Z,101154.50
2022-08-09T17:58:48.216Z,101151.81
2022-08-09T18:01:15.677Z,101151.81
2022-08-09T18:03:50.091Z,101159.03
2022-08-09T18:06:31.079Z,101156.34
2022-08-09T18:08:59.240Z,101154.66
2022-08-09T18:11:27.018Z,101156.34
2022-08-09T18:14:03.357Z,101162.59
2022-08-09T18:16:34.733Z,101168.88
2022-08-09T18:20:59.838Z,101160.78
2022-08-09T18:21:58.093Z,101164.31
2022-08-09T18:24:27.752Z,101167.97
2022-08-09T18:26:55.468Z,101167.97
2022-08-09T18:30:41.356Z,101163.59
2022-08-09T18:32:08.938Z,101168.97
2022-08-09T18:34:36.358Z,101172.41
2022-08-09T18:37:03.624Z,101184.16
2022-08-09T18:39:32.185Z,101174.25
2022-08-09T18:42:01.249Z,101178.75
2022-08-09T18:44:27.935Z,101182.34
2022-08-09T18:47:08.201Z,101179.63
2022-08-09T18:49:43.759Z,101183.31
2022-08-09T18:52:14.100Z,101177.06
2022-08-09T18:54:49.575Z,101184.16
2022-08-09T18:57:22.773Z,101189.81
2022-08-09T18:59:54.431Z,101189.81
2022-08-09T19:02:30.478Z,101185.41
2022-08-09T19:05:03.646Z,101185.41
2022-08-09T19:07:40.858Z,101186.41
2022-08-09T19:10:15.721Z,101184.69
2022-08-09T19:12:50.011Z,101181.72
2022-08-09T19:15:19.433Z,101190.69
2022-08-09T19:17:54.308Z,101191.66
2022-08-09T19:20:22.837Z,101189.22
2022-08-09T19:22:50.430Z,101192.06
2022-08-09T19:25:42.590Z,101185.66
2022-08-09T19:28:12.999Z,101199.41
2022-08-09T19:30:40.259Z,101195.00
2022-08-09T19:33:17.975Z,101204.78
2022-08-09T19:35:57.098Z,101196.00
2022-08-09T19:38:25.395Z,101197.09
2022-08-09T19:40:51.938Z,101201.63
2022-08-09T19:44:01.642Z,101201.63
2022-08-09T19:46:06.281Z,101205.44
2022-08-09T19:49:00.470Z,101209.97
2022-08-09T19:51:21.329Z,101214.66
2022-08-09T19:53:48.225Z,101216.47
2022-08-09T19:56:15.437Z,101210.38
2022-08-09T19:58:56.516Z,101219.47
2022-08-09T20:01:52.205Z,101223.97
2022-08-09T20:04:25.120Z,101225.94
2022-08-09T20:06:59.811Z,101224.22
2022-08-09T20:09:45.302Z,101227.06
2022-08-09T20:12:16.187Z,101222.66
2022-08-09T20:14:58.083Z,101228.16
2022-08-09T20:17:26.133Z,101231.84
2022-08-09T20:19:57.497Z,101231.00
2022-08-09T20:22:24.194Z,101234.69
2022-08-09T20:24:58.752Z,101229.41
2022-08-09T20:27:29.324Z,101232.25
2022-08-09T20:29:55.973Z,101235.91
2022-08-09T20:32:40.876Z,101243.97
2022-08-09T20:35:11.734Z,101243.13
2022-08-09T20:38:22.564Z,101238.00
2022-08-09T20:40:27.191Z,101240.81
2022-08-09T20:43:11.899Z,101247.06
2022-08-09T20:46:01.407Z,101255.28
2022-08-09T20:48:31.135Z,101240.22
2022-08-09T20:50:58.518Z,101242.78
2022-08-09T20:53:37.095Z,101241.22
2022-08-09T20:56:06.395Z,101238.53
2022-08-09T20:58:35.862Z,101234.97
2022-08-09T21:01:32.799Z,101235.94
2022-08-09T21:05:49.246Z,101238.78
2022-08-09T21:06:41.579Z,101240.03
2022-08-09T21:09:13.412Z,101240.72
2022-08-09T21:14:27.142Z,101234.63
2022-08-09T21:16:57.823Z,101232.78
2022-08-09T21:20:19.143Z,101240.13
2022-08-09T21:22:36.115Z,101242.97
2022-08-09T21:25:00.467Z,101240.38
2022-08-09T21:27:51.189Z,101243.91
2022-08-09T21:30:13.844Z,101236.84
2022-08-09T21:32:45.283Z,101234.13
2022-08-09T21:35:13.066Z,101228.91
2022-08-09T21:37:40.557Z,101227.16
2022-08-09T21:40:19.039Z,101236.13
2022-08-09T21:42:57.474Z,101231.69
2022-08-09T21:45:24.797Z,101228.28
2022-08-09T21:47:52.194Z,101237.22
2022-08-09T21:50:36.191Z,101233.06
2022-08-09T21:53:06.766Z,101241.16
2022-08-09T21:55:50.546Z,101242.22
2022-08-09T21:58:17.070Z,101246.59
2022-08-09T22:00:43.846Z,101242.22
2022-08-09T22:03:25.616Z,101239.66
2022-08-09T22:05:54.379Z,101244.16
2022-08-09T22:08:23.026Z,101238.78
2022-08-09T22:11:00.238Z,101239.78
2022-08-09T22:13:39.353Z,101230.97
2022-08-09T22:16:10.374Z,101239.16
2022-08-09T22:18:38.300Z,101239.16
2022-08-09T22:21:09.940Z,101241.84
2022-08-09T22:23:58.997Z,101242.09
2022-08-09T22:26:34.936Z,101242.97
2022-08-09T22:29:07.146Z,101244.09
2022-08-09T22:31:34.564Z,101238.81
2022-08-09T22:34:01.275Z,101231.72
2022-08-09T22:36:29.055Z,101236.25
2022-08-09T22:39:11.736Z,101230.97
2022-08-09T22:41:58.158Z,101243.47
2022-08-09T22:44:25.223Z,101242.59
2022-08-09T22:48:15.521Z,101242.72
2022-08-09T22:49:45.375Z,101233.91
2022-08-09T22:52:13.175Z,101233.91
2022-08-09T22:54:42.300Z,101228.66
2022-08-09T22:57:13.358Z,101229.78
2022-08-09T22:59:58.317Z,101231.75
2022-08-09T23:02:25.861Z,101231.75
2022-08-09T23:04:54.688Z,101235.41
2022-08-09T23:07:31.041Z,101239.06
2022-08-09T23:10:12.373Z,101234.69
2022-08-09T23:12:38.882Z,101228.56
2022-08-09T23:15:05.869Z,101234.06
2022-08-09T23:17:32.700Z,101226.09
2022-08-09T23:20:07.267Z,101225.25
2022-08-09T23:22:36.131Z,101224.53
2022-08-09T23:25:02.823Z,101223.69
2022-08-09T23:27:29.424Z,101220.13
2022-08-09T23:29:55.881Z,101222.94
2022-08-09T23:32:22.339Z,101223.94
2022-08-09T23:34:48.918Z,101226.63
2022-08-09T23:37:15.389Z,101218.66
2022-08-09T23:39:45.564Z,101212.66
2022-08-09T23:42:12.089Z,101209.13
2022-08-09T23:44:38.581Z,101212.81
2022-08-09T23:47:05.164Z,101207.44
2022-08-09T23:49:31.649Z,101211.22
2022-08-09T23:51:58.207Z,101209.38
2022-08-09T23:54:26.764Z,101206.81
2022-08-09T23:56:56.139Z,101206.81
2022-08-09T23:59:25.623Z,101216.84
